Airport View

Enter AWOS ICAO identifier for current METAR.

ex. KFNL

KUCY 200255Z AUTO 00000KT 10SM FEW060 06/M01 A3029 RMK A01

20 Mar 2019 03:19

Frequency: 135.325

Phone: 731-885-9161

Other Area AWOS: KPHT - KM25 - KDYR - KHZD

TAF KPAH 192320Z 2000/2024 16003KT P6SM SCT150 BKN250 FM201500 21008G15KT P6SM VCSH SCT060 BKN150 FM201800 22011G17KT P6SM VCSH OVC050 FM202200 24008KT 6SM -SHRA BR OVC025